sensor_id;sensor_type;location;lat;lon;timestamp;temperature;humidity
78054;DHT22;67726;45.636;11.752;2024-02-14T00:01:34;7.20;99.90
78054;DHT22;67726;45.636;11.752;2024-02-14T00:04:03;7.10;99.90
78054;DHT22;67726;45.636;11.752;2024-02-14T00:06:28;7.00;99.90
78054;DHT22;67726;45.636;11.752;2024-02-14T00:08:54;6.90;99.90
78054;DHT22;67726;45.636;11.752;2024-02-14T00:11:19;6.90;99.90
78054;DHT22;67726;45.636;11.752;2024-02-14T00:13:45;6.90;99.90
78054;DHT22;67726;45.636;11.752;2024-02-14T00:16:11;6.70;99.90
78054;DHT22;67726;45.636;11.752;2024-02-14T00:18:36;6.60;99.90
78054;DHT22;67726;45.636;11.752;2024-02-14T00:21:02;6.80;99.90
78054;DHT22;67726;45.636;11.752;2024-02-14T00:23:28;6.60;99.90
78054;DHT22;67726;45.636;11.752;2024-02-14T00:25:53;6.70;99.90
78054;DHT22;67726;45.636;11.752;2024-02-14T00:28:19;6.70;99.90
78054;DHT22;67726;45.636;11.752;2024-02-14T00:30:45;6.60;99.90
78054;DHT22;67726;45.636;11.752;2024-02-14T00:33:11;6.80;99.90
78054;DHT22;67726;45.636;11.752;2024-02-14T00:35:36;6.80;99.90
78054;DHT22;67726;45.636;11.752;2024-02-14T00:38:02;6.80;99.90
78054;DHT22;67726;45.636;11.752;2024-02-14T00:40:28;6.60;99.90
78054;DHT22;67726;45.636;11.752;2024-02-14T00:42:53;6.70;99.90
78054;DHT22;67726;45.636;11.752;2024-02-14T00:45:19;6.50;99.90
78054;DHT22;67726;45.636;11.752;2024-02-14T00:47:45;6.70;99.90
78054;DHT22;67726;45.636;11.752;2024-02-14T00:50:10;6.80;99.90
78054;DHT22;67726;45.636;11.752;2024-02-14T00:52:39;6.80;99.90
78054;DHT22;67726;45.636;11.752;2024-02-14T00:55:05;6.80;99.90
78054;DHT22;67726;45.636;11.752;2024-02-14T00:57:31;7.00;99.90
78054;DHT22;67726;45.636;11.752;2024-02-14T00:59:57;7.00;99.90
78054;DHT22;67726;45.636;11.752;2024-02-14T01:02:22;7.20;99.90
78054;DHT22;67726;45.636;11.752;2024-02-14T01:04:48;7.10;99.90
78054;DHT22;67726;45.636;11.752;2024-02-14T01:07:13;7.20;99.90
78054;DHT22;67726;45.636;11.752;2024-02-14T01:09:39;7.30;99.90
78054;DHT22;67726;45.636;11.752;2024-02-14T01:12:05;7.10;99.90
78054;DHT22;67726;45.636;11.752;2024-02-14T01:14:31;7.20;99.90
78054;DHT22;67726;45.636;11.752;2024-02-14T01:16:57;7.20;99.90
78054;DHT22;67726;45.636;11.752;2024-02-14T01:19:22;7.20;99.90
78054;DHT22;67726;45.636;11.752;2024-02-14T01:21:54;7.30;99.90
78054;DHT22;67726;45.636;11.752;2024-02-14T01:24:20;7.30;99.90
78054;DHT22;67726;45.636;11.752;2024-02-14T01:26:47;7.20;99.90
78054;DHT22;67726;45.636;11.752;2024-02-14T01:29:13;7.30;99.90
78054;DHT22;67726;45.636;11.752;2024-02-14T01:31:39;7.40;99.90
78054;DHT22;67726;45.636;11.752;2024-02-14T01:34:04;7.30;99.90
78054;DHT22;67726;45.636;11.752;2024-02-14T01:36:30;7.20;99.90
78054;DHT22;67726;45.636;11.752;2024-02-14T01:38:56;7.30;99.90
78054;DHT22;67726;45.636;11.752;2024-02-14T01:41:21;7.30;99.90
78054;DHT22;67726;45.636;11.752;2024-02-14T01:43:47;7.20;99.90
78054;DHT22;67726;45.636;11.752;2024-02-14T01:46:13;7.10;99.90
78054;DHT22;67726;45.636;11.752;2024-02-14T01:48:39;7.20;99.90
78054;DHT22;67726;45.636;11.752;2024-02-14T01:51:08;7.00;99.90
78054;DHT22;67726;45.636;11.752;2024-02-14T01:53:36;7.00;99.90
78054;DHT22;67726;45.636;11.752;2024-02-14T01:56:03;6.90;99.90
78054;DHT22;67726;45.636;11.752;2024-02-14T01:58:30;6.80;99.90
78054;DHT22;67726;45.636;11.752;2024-02-14T02:00:56;6.80;99.90
78054;DHT22;67726;45.636;11.752;2024-02-14T02:03:24;6.60;99.90
78054;DHT22;67726;45.636;11.752;2024-02-14T02:05:51;6.60;99.90
78054;DHT22;67726;45.636;11.752;2024-02-14T02:08:17;6.40;99.90
78054;DHT22;67726;45.636;11.752;2024-02-14T02:10:43;6.40;99.90
78054;DHT22;67726;45.636;11.752;2024-02-14T02:13:08;6.30;99.90
78054;DHT22;67726;45.636;11.752;2024-02-14T02:15:34;6.40;99.90
78054;DHT22;67726;45.636;11.752;2024-02-14T02:18:02;6.30;99.90
78054;DHT22;67726;45.636;11.752;2024-02-14T02:20:30;6.10;99.90
78054;DHT22;67726;45.636;11.752;2024-02-14T02:22:57;6.10;99.90
78054;DHT22;67726;45.636;11.752;2024-02-14T02:25:23;6.10;99.90
78054;DHT22;67726;45.636;11.752;2024-02-14T02:27:50;6.10;99.90
78054;DHT22;67726;45.636;11.752;2024-02-14T02:30:15;6.00;99.90
78054;DHT22;67726;45.636;11.752;2024-02-14T02:32:42;6.00;99.90
78054;DHT22;67726;45.636;11.752;2024-02-14T02:35:08;6.00;99.90
78054;DHT22;67726;45.636;11.752;2024-02-14T02:37:35;6.10;99.90
78054;DHT22;67726;45.636;11.752;2024-02-14T02:40:01;6.00;99.90
78054;DHT22;67726;45.636;11.752;2024-02-14T02:42:26;5.90;99.90
78054;DHT22;67726;45.636;11.752;2024-02-14T02:44:53;6.00;99.90
78054;DHT22;67726;45.636;11.752;2024-02-14T02:47:18;6.00;99.90
78054;DHT22;67726;45.636;11.752;2024-02-14T02:49:44;5.90;99.90
78054;DHT22;67726;45.636;11.752;2024-02-14T02:52:13;5.90;99.90
78054;DHT22;67726;45.636;11.752;2024-02-14T02:54:40;6.00;99.90
78054;DHT22;67726;45.636;11.752;2024-02-14T02:57:07;5.80;99.90
78054;DHT22;67726;45.636;11.752;2024-02-14T02:59:34;5.90;99.90
78054;DHT22;67726;45.636;11.752;2024-02-14T03:02:01;6.00;99.90
78054;DHT22;67726;45.636;11.752;2024-02-14T03:04:27;5.80;99.90
78054;DHT22;67726;45.636;11.752;2024-02-14T03:06:53;5.80;99.90
78054;DHT22;67726;45.636;11.752;2024-02-14T03:09:19;5.80;99.90
78054;DHT22;67726;45.636;11.752;2024-02-14T03:11:48;5.70;99.90
78054;DHT22;67726;45.636;11.752;2024-02-14T03:14:14;5.80;99.90
78054;DHT22;67726;45.636;11.752;2024-02-14T03:16:40;5.80;99.90
78054;DHT22;67726;45.636;11.752;2024-02-14T03:19:06;5.70;99.90
78054;DHT22;67726;45.636;11.752;2024-02-14T03:21:32;5.70;99.90
78054;DHT22;67726;45.636;11.752;2024-02-14T03:24:04;5.80;99.90
78054;DHT22;67726;45.636;11.752;2024-02-14T03:26:33;5.70;99.90
78054;DHT22;67726;45.636;11.752;2024-02-14T03:29:00;5.80;99.90
78054;DHT22;67726;45.636;11.752;2024-02-14T03:31:26;5.80;99.90
78054;DHT22;67726;45.636;11.752;2024-02-14T03:33:51;5.70;99.90
78054;DHT22;67726;45.636;11.752;2024-02-14T03:36:19;5.70;99.90
78054;DHT22;67726;45.636;11.752;2024-02-14T03:38:44;5.80;99.90
78054;DHT22;67726;45.636;11.752;2024-02-14T03:41:11;5.80;99.90
78054;DHT22;67726;45.636;11.752;2024-02-14T03:43:38;5.60;99.90
78054;DHT22;67726;45.636;11.752;2024-02-14T03:46:04;5.50;99.90
78054;DHT22;67726;45.636;11.752;2024-02-14T03:48:30;5.60;99.90
78054;DHT22;67726;45.636;11.752;2024-02-14T03:50:56;5.50;99.90
78054;DHT22;67726;45.636;11.752;2024-02-14T03:53:23;5.50;99.90
78054;DHT22;67726;45.636;11.752;2024-02-14T03:55:48;5.50;99.90
78054;DHT22;67726;45.636;11.752;2024-02-14T03:58:15;5.50;99.90
78054;DHT22;67726;45.636;11.752;2024-02-14T04:00:42;5.40;99.90
78054;DHT22;67726;45.636;11.752;2024-02-14T04:03:12;5.40;99.90
78054;DHT22;67726;45.636;11.752;2024-02-14T04:05:38;5.80;99.90
78054;DHT22;67726;45.636;11.752;2024-02-14T04:08:04;5.60;99.90
78054;DHT22;67726;45.636;11.752;2024-02-14T04:10:29;5.60;99.90
78054;DHT22;67726;45.636;11.752;2024-02-14T04:12:55;5.60;99.90
78054;DHT22;67726;45.636;11.752;2024-02-14T04:15:21;5.60;99.90
78054;DHT22;67726;45.636;11.752;2024-02-14T04:17:47;5.60;99.90
78054;DHT22;67726;45.636;11.752;2024-02-14T04:20:12;5.70;99.90
78054;DHT22;67726;45.636;11.752;2024-02-14T04:22:38;5.60;99.90
78054;DHT22;67726;45.636;11.752;2024-02-14T04:25:04;5.50;99.90
78054;DHT22;67726;45.636;11.752;2024-02-14T04:27:32;5.50;99.90
78054;DHT22;67726;45.636;11.752;2024-02-14T04:30:00;5.50;99.90
78054;DHT22;67726;45.636;11.752;2024-02-14T04:32:26;5.40;99.90
78054;DHT22;67726;45.636;11.752;2024-02-14T04:34:52;5.30;99.90
78054;DHT22;67726;45.636;11.752;2024-02-14T04:37:18;5.40;99.90
78054;DHT22;67726;45.636;11.752;2024-02-14T04:39:45;5.40;99.90
78054;DHT22;67726;45.636;11.752;2024-02-14T04:42:10;5.40;99.90
78054;DHT22;67726;45.636;11.752;2024-02-14T04:44:36;5.30;99.90
78054;DHT22;67726;45.636;11.752;2024-02-14T04:47:02;5.40;99.90
78054;DHT22;67726;45.636;11.752;2024-02-14T04:49:28;5.30;99.90
78054;DHT22;67726;45.636;11.752;2024-02-14T04:51:57;5.20;99.90
78054;DHT22;67726;45.636;11.752;2024-02-14T04:54:23;5.40;99.90
78054;DHT22;67726;45.636;11.752;2024-02-14T04:56:48;5.40;99.90
78054;DHT22;67726;45.636;11.752;2024-02-14T04:59:14;5.30;99.90
78054;DHT22;67726;45.636;11.752;2024-02-14T05:01:40;5.30;99.90
78054;DHT22;67726;45.636;11.752;2024-02-14T05:04:08;5.00;99.90
78054;DHT22;67726;45.636;11.752;2024-02-14T05:06:34;5.30;99.90
78054;DHT22;67726;45.636;11.752;2024-02-14T05:09:00;5.40;99.90
78054;DHT22;67726;45.636;11.752;2024-02-14T05:11:25;5.30;99.90
78054;DHT22;67726;45.636;11.752;2024-02-14T05:13:51;5.20;99.90
78054;DHT22;67726;45.636;11.752;2024-02-14T05:16:18;5.30;99.90
78054;DHT22;67726;45.636;11.752;2024-02-14T05:18:44;5.10;99.90
78054;DHT22;67726;45.636;11.752;2024-02-14T05:21:10;5.10;99.90
78054;DHT22;67726;45.636;11.752;2024-02-14T05:23:35;5.20;99.90
78054;DHT22;67726;45.636;11.752;2024-02-14T05:26:04;5.20;99.90
78054;DHT22;67726;45.636;11.752;2024-02-14T05:28:31;5.10;99.90
78054;DHT22;67726;45.636;11.752;2024-02-14T05:30:57;5.10;99.90
78054;DHT22;67726;45.636;11.752;2024-02-14T05:33:23;5.00;99.90
78054;DHT22;67726;45.636;11.752;2024-02-14T05:35:49;5.10;99.90
78054;DHT22;67726;45.636;11.752;2024-02-14T05:38:15;5.00;99.90
78054;DHT22;67726;45.636;11.752;2024-02-14T05:40:41;4.90;99.90
78054;DHT22;67726;45.636;11.752;2024-02-14T05:43:09;5.00;99.90
78054;DHT22;67726;45.636;11.752;2024-02-14T05:45:35;5.00;99.90
78054;DHT22;67726;45.636;11.752;2024-02-14T05:48:01;5.00;99.90
78054;DHT22;67726;45.636;11.752;2024-02-14T05:50:27;5.00;99.90
78054;DHT22;67726;45.636;11.752;2024-02-14T05:52:53;5.20;99.90
78054;DHT22;67726;45.636;11.752;2024-02-14T05:55:19;5.10;99.90
78054;DHT22;67726;45.636;11.752;2024-02-14T05:57:44;5.10;99.90
78054;DHT22;67726;45.636;11.752;2024-02-14T06:00:10;5.10;99.90
78054;DHT22;67726;45.636;11.752;2024-02-14T06:02:38;5.10;99.90
78054;DHT22;67726;45.636;11.752;2024-02-14T06:05:06;5.00;99.90
78054;DHT22;67726;45.636;11.752;2024-02-14T06:07:35;5.20;99.90
78054;DHT22;67726;45.636;11.752;2024-02-14T06:10:01;5.20;99.90
78054;DHT22;67726;45.636;11.752;2024-02-14T06:12:27;5.30;99.90
78054;DHT22;67726;45.636;11.752;2024-02-14T06:14:52;5.10;99.90
78054;DHT22;67726;45.636;11.752;2024-02-14T06:17:18;4.90;99.90
78054;DHT22;67726;45.636;11.752;2024-02-14T06:19:44;4.80;99.90
78054;DHT22;67726;45.636;11.752;2024-02-14T06:22:09;5.20;99.90
78054;DHT22;67726;45.636;11.752;2024-02-14T06:24:36;5.30;99.90
78054;DHT22;67726;45.636;11.752;2024-02-14T06:27:01;5.20;99.90
78054;DHT22;67726;45.636;11.752;2024-02-14T06:29:27;5.20;99.90
78054;DHT22;67726;45.636;11.752;2024-02-14T06:31:53;5.20;99.90
78054;DHT22;67726;45.636;11.752;2024-02-14T06:34:19;5.30;99.90
78054;DHT22;67726;45.636;11.752;2024-02-14T06:36:46;5.30;99.90
78054;DHT22;67726;45.636;11.752;2024-02-14T06:39:12;5.30;99.90
78054;DHT22;67726;45.636;11.752;2024-02-14T06:41:38;5.50;99.90
78054;DHT22;67726;45.636;11.752;2024-02-14T06:44:07;5.60;99.90
78054;DHT22;67726;45.636;11.752;2024-02-14T06:46:33;5.80;99.90
78054;DHT22;67726;45.636;11.752;2024-02-14T06:49:01;5.80;99.90
78054;DHT22;67726;45.636;11.752;2024-02-14T06:51:27;5.90;99.90
78054;DHT22;67726;45.636;11.752;2024-02-14T06:53:53;6.10;99.90
78054;DHT22;67726;45.636;11.752;2024-02-14T06:56:18;6.40;99.90
78054;DHT22;67726;45.636;11.752;2024-02-14T06:58:44;6.50;99.90
78054;DHT22;67726;45.636;11.752;2024-02-14T07:01:10;6.80;99.90
78054;DHT22;67726;45.636;11.752;2024-02-14T07:03:38;7.00;99.90
78054;DHT22;67726;45.636;11.752;2024-02-14T07:06:06;7.30;99.90
78054;DHT22;67726;45.636;11.752;2024-02-14T07:08:31;7.70;99.90
78054;DHT22;67726;45.636;11.752;2024-02-14T07:10:57;8.00;99.90
78054;DHT22;67726;45.636;11.752;2024-02-14T07:13:23;8.50;99.90
78054;DHT22;67726;45.636;11.752;2024-02-14T07:15:48;8.80;99.90
78054;DHT22;67726;45.636;11.752;2024-02-14T07:18:14;9.00;93.50
78054;DHT22;67726;45.636;11.752;2024-02-14T07:20:40;9.30;99.90
78054;DHT22;67726;45.636;11.752;2024-02-14T07:23:05;9.70;99.90
78054;DHT22;67726;45.636;11.752;2024-02-14T07:25:31;10.20;99.90
78054;DHT22;67726;45.636;11.752;2024-02-14T07:27:56;10.80;99.90
78054;DHT22;67726;45.636;11.752;2024-02-14T07:30:22;11.40;99.90
78054;DHT22;67726;45.636;11.752;2024-02-14T07:32:48;12.30;99.90
78054;DHT22;67726;45.636;11.752;2024-02-14T07:35:13;12.90;99.90
78054;DHT22;67726;45.636;11.752;2024-02-14T07:37:39;13.30;99.90
78054;DHT22;67726;45.636;11.752;2024-02-14T07:40:06;13.70;99.90
78054;DHT22;67726;45.636;11.752;2024-02-14T07:42:32;14.00;99.90
78054;DHT22;67726;45.636;11.752;2024-02-14T07:44:57;14.20;99.90
78054;DHT22;67726;45.636;11.752;2024-02-14T07:47:23;14.10;99.90
78054;DHT22;67726;45.636;11.752;2024-02-14T07:49:49;13.70;99.90
78054;DHT22;67726;45.636;11.752;2024-02-14T07:52:14;13.60;99.90
78054;DHT22;67726;45.636;11.752;2024-02-14T07:54:40;13.80;99.90
78054;DHT22;67726;45.636;11.752;2024-02-14T07:57:06;13.90;99.90
78054;DHT22;67726;45.636;11.752;2024-02-14T07:59:32;14.10;99.90
78054;DHT22;67726;45.636;11.752;2024-02-14T08:01:58;14.40;99.90
78054;DHT22;67726;45.636;11.752;2024-02-14T08:04:24;14.60;99.90
78054;DHT22;67726;45.636;11.752;2024-02-14T08:06:49;15.10;99.90
78054;DHT22;67726;45.636;11.752;2024-02-14T08:09:15;15.50;99.90
78054;DHT22;67726;45.636;11.752;2024-02-14T08:11:41;15.80;99.90
78054;DHT22;67726;45.636;11.752;2024-02-14T08:14:07;16.00;95.60
78054;DHT22;67726;45.636;11.752;2024-02-14T08:16:32;16.30;90.50
78054;DHT22;67726;45.636;11.752;2024-02-14T08:18:58;16.40;85.40
78054;DHT22;67726;45.636;11.752;2024-02-14T08:21:27;16.60;90.60
78054;DHT22;67726;45.636;11.752;2024-02-14T08:23:53;16.70;97.00
78054;DHT22;67726;45.636;11.752;2024-02-14T08:26:21;16.90;93.00
78054;DHT22;67726;45.636;11.752;2024-02-14T08:28:46;17.10;95.90
78054;DHT22;67726;45.636;11.752;2024-02-14T08:31:13;17.60;96.90
78054;DHT22;67726;45.636;11.752;2024-02-14T08:33:38;18.10;95.30
78054;DHT22;67726;45.636;11.752;2024-02-14T08:36:07;18.50;96.60
78054;DHT22;67726;45.636;11.752;2024-02-14T08:38:34;18.80;96.30
78054;DHT22;67726;45.636;11.752;2024-02-14T08:41:03;19.10;95.20
78054;DHT22;67726;45.636;11.752;2024-02-14T08:43:29;19.40;95.60
78054;DHT22;67726;45.636;11.752;2024-02-14T08:45:55;19.60;94.70
78054;DHT22;67726;45.636;11.752;2024-02-14T08:48:21;20.00;93.90
78054;DHT22;67726;45.636;11.752;2024-02-14T08:50:47;20.50;93.10
78054;DHT22;67726;45.636;11.752;2024-02-14T08:53:13;21.10;92.50
78054;DHT22;67726;45.636;11.752;2024-02-14T08:55:40;21.50;87.10
78054;DHT22;67726;45.636;11.752;2024-02-14T08:58:06;21.80;88.70
78054;DHT22;67726;45.636;11.752;2024-02-14T09:00:31;22.10;82.90
78054;DHT22;67726;45.636;11.752;2024-02-14T09:03:00;22.10;84.00
78054;DHT22;67726;45.636;11.752;2024-02-14T09:05:26;21.80;68.70
78054;DHT22;67726;45.636;11.752;2024-02-14T09:07:53;21.80;79.00
78054;DHT22;67726;45.636;11.752;2024-02-14T09:10:19;22.10;79.80
78054;DHT22;67726;45.636;11.752;2024-02-14T09:12:45;22.40;83.90
78054;DHT22;67726;45.636;11.752;2024-02-14T09:15:11;22.60;82.10
78054;DHT22;67726;45.636;11.752;2024-02-14T09:17:37;22.60;81.60
78054;DHT22;67726;45.636;11.752;2024-02-14T09:20:09;22.50;77.90
78054;DHT22;67726;45.636;11.752;2024-02-14T09:22:38;22.20;77.30
78054;DHT22;67726;45.636;11.752;2024-02-14T09:25:04;22.00;84.30
78054;DHT22;67726;45.636;11.752;2024-02-14T09:27:31;21.90;83.70
78054;DHT22;67726;45.636;11.752;2024-02-14T09:29:57;22.20;87.10
78054;DHT22;67726;45.636;11.752;2024-02-14T09:32:22;22.20;87.10
78054;DHT22;67726;45.636;11.752;2024-02-14T09:34:48;22.10;49.70
78054;DHT22;67726;45.636;11.752;2024-02-14T09:37:14;21.90;71.30
78054;DHT22;67726;45.636;11.752;2024-02-14T09:39:39;21.90;75.00
78054;DHT22;67726;45.636;11.752;2024-02-14T09:42:12;21.80;48.60
78054;DHT22;67726;45.636;11.752;2024-02-14T09:44:40;21.80;71.40
78054;DHT22;67726;45.636;11.752;2024-02-14T09:47:06;22.00;68.30
78054;DHT22;67726;45.636;11.752;2024-02-14T09:49:35;22.40;63.70
78054;DHT22;67726;45.636;11.752;2024-02-14T09:52:02;22.70;83.30
78054;DHT22;67726;45.636;11.752;2024-02-14T09:54:29;22.90;74.50
78054;DHT22;67726;45.636;11.752;2024-02-14T09:56:57;23.10;75.60
78054;DHT22;67726;45.636;11.752;2024-02-14T09:59:23;23.50;76.70
78054;DHT22;67726;45.636;11.752;2024-02-14T10:01:49;23.60;76.60
78054;DHT22;67726;45.636;11.752;2024-02-14T10:04:17;23.80;77.90
78054;DHT22;67726;45.636;11.752;2024-02-14T10:06:44;23.50;70.10
78054;DHT22;67726;45.636;11.752;2024-02-14T10:09:10;23.30;54.90
78054;DHT22;67726;45.636;11.752;2024-02-14T10:11:37;23.10;43.60
78054;DHT22;67726;45.636;11.752;2024-02-14T10:14:04;23.20;44.10
78054;DHT22;67726;45.636;11.752;2024-02-14T10:16:35;23.30;53.00
78054;DHT22;67726;45.636;11.752;2024-02-14T10:19:01;23.50;75.40
78054;DHT22;67726;45.636;11.752;2024-02-14T10:21:27;23.70;78.40
78054;DHT22;67726;45.636;11.752;2024-02-14T10:23:54;23.40;53.40
78054;DHT22;67726;45.636;11.752;2024-02-14T10:26:23;23.10;50.00
78054;DHT22;67726;45.636;11.752;2024-02-14T10:28:48;23.30;64.30
78054;DHT22;67726;45.636;11.752;2024-02-14T10:31:16;23.50;81.70
78054;DHT22;67726;45.636;11.752;2024-02-14T10:33:42;23.80;80.50
78054;DHT22;67726;45.636;11.752;2024-02-14T10:36:08;23.70;69.50
78054;DHT22;67726;45.636;11.752;2024-02-14T10:38:34;23.70;62.20
78054;DHT22;67726;45.636;11.752;2024-02-14T10:41:00;23.90;76.50
78054;DHT22;67726;45.636;11.752;2024-02-14T10:43:29;23.60;36.00
78054;DHT22;67726;45.636;11.752;2024-02-14T10:45:56;23.70;52.10
78054;DHT22;67726;45.636;11.752;2024-02-14T10:48:28;23.30;50.80
78054;DHT22;67726;45.636;11.752;2024-02-14T10:50:59;23.50;71.20
78054;DHT22;67726;45.636;11.752;2024-02-14T10:53:29;23.20;49.70
78054;DHT22;67726;45.636;11.752;2024-02-14T10:55:59;23.10;60.80
78054;DHT22;67726;45.636;11.752;2024-02-14T10:58:28;23.10;58.50
78054;DHT22;67726;45.636;11.752;2024-02-14T11:00:55;23.40;74.60
78054;DHT22;67726;45.636;11.752;2024-02-14T11:03:22;23.60;36.90
78054;DHT22;67726;45.636;11.752;2024-02-14T11:05:48;23.00;37.90
78054;DHT22;67726;45.636;11.752;2024-02-14T11:08:18;22.80;44.90
78054;DHT22;67726;45.636;11.752;2024-02-14T11:10:56;23.00;67.10
78054;DHT22;67726;45.636;11.752;2024-02-14T11:13:28;23.30;60.50
78054;DHT22;67726;45.636;11.752;2024-02-14T11:15:54;23.40;62.30
78054;DHT22;67726;45.636;11.752;2024-02-14T11:18:30;23.50;57.90
78054;DHT22;67726;45.636;11.752;2024-02-14T11:20:56;23.20;38.20
78054;DHT22;67726;45.636;11.752;2024-02-14T11:23:25;21.60;35.90
78054;DHT22;67726;45.636;11.752;2024-02-14T11:26:03;21.50;54.50
78054;DHT22;67726;45.636;11.752;2024-02-14T11:28:29;21.60;43.70
78054;DHT22;67726;45.636;11.752;2024-02-14T11:31:09;22.20;53.20
78054;DHT22;67726;45.636;11.752;2024-02-14T11:33:38;22.50;50.10
78054;DHT22;67726;45.636;11.752;2024-02-14T11:36:08;23.00;50.40
78054;DHT22;67726;45.636;11.752;2024-02-14T11:38:39;22.90;51.10
78054;DHT22;67726;45.636;11.752;2024-02-14T11:41:05;22.20;42.90
78054;DHT22;67726;45.636;11.752;2024-02-14T11:43:32;22.30;52.00
78054;DHT22;67726;45.636;11.752;2024-02-14T11:45:57;22.60;65.20
78054;DHT22;67726;45.636;11.752;2024-02-14T11:48:23;22.80;59.40
78054;DHT22;67726;45.636;11.752;2024-02-14T11:50:50;23.00;51.10
78054;DHT22;67726;45.636;11.752;2024-02-14T11:53:17;23.00;44.30
78054;DHT22;67726;45.636;11.752;2024-02-14T11:55:44;22.30;43.30
78054;DHT22;67726;45.636;11.752;2024-02-14T11:58:15;22.60;58.80
78054;DHT22;67726;45.636;11.752;2024-02-14T12:00:45;22.40;40.20
78054;DHT22;67726;45.636;11.752;2024-02-14T12:03:19;22.50;47.20
78054;DHT22;67726;45.636;11.752;2024-02-14T12:05:47;23.10;71.90
78054;DHT22;67726;45.636;11.752;2024-02-14T12:10:36;22.40;41.30
78054;DHT22;67726;45.636;11.752;2024-02-14T12:13:22;22.40;40.90
78054;DHT22;67726;45.636;11.752;2024-02-14T12:15:50;22.70;53.90
78054;DHT22;67726;45.636;11.752;2024-02-14T12:18:18;23.00;43.60
78054;DHT22;67726;45.636;11.752;2024-02-14T12:20:44;23.20;57.10
78054;DHT22;67726;45.636;11.752;2024-02-14T12:23:15;23.50;54.50
78054;DHT22;67726;45.636;11.752;2024-02-14T12:25:44;23.60;56.70
78054;DHT22;67726;45.636;11.752;2024-02-14T12:28:18;23.90;47.70
78054;DHT22;67726;45.636;11.752;2024-02-14T12:30:51;23.70;46.70
78054;DHT22;67726;45.636;11.752;2024-02-14T12:33:22;24.00;48.30
78054;DHT22;67726;45.636;11.752;2024-02-14T12:35:50;24.00;55.40
78054;DHT22;67726;45.636;11.752;2024-02-14T12:38:17;23.70;50.80
78054;DHT22;67726;45.636;11.752;2024-02-14T12:40:43;23.50;46.40
78054;DHT22;67726;45.636;11.752;2024-02-14T12:43:10;23.70;54.10
78054;DHT22;67726;45.636;11.752;2024-02-14T12:45:37;23.30;39.40
78054;DHT22;67726;45.636;11.752;2024-02-14T12:48:03;23.30;51.00
78054;DHT22;67726;45.636;11.752;2024-02-14T12:50:31;23.30;50.20
78054;DHT22;67726;45.636;11.752;2024-02-14T12:52:57;23.30;56.20
78054;DHT22;67726;45.636;11.752;2024-02-14T12:55:23;23.50;40.30
78054;DHT22;67726;45.636;11.752;2024-02-14T12:57:51;23.70;56.10
78054;DHT22;67726;45.636;11.752;2024-02-14T13:00:17;24.20;60.70
78054;DHT22;67726;45.636;11.752;2024-02-14T13:02:43;24.80;65.40
78054;DHT22;67726;45.636;11.752;2024-02-14T13:05:09;24.90;64.10
78054;DHT22;67726;45.636;11.752;2024-02-14T13:07:35;24.90;38.60
78054;DHT22;67726;45.636;11.752;2024-02-14T13:10:00;24.60;48.00
78054;DHT22;67726;45.636;11.752;2024-02-14T13:12:26;24.30;44.60
78054;DHT22;67726;45.636;11.752;2024-02-14T13:14:52;24.50;48.90
78054;DHT22;67726;45.636;11.752;2024-02-14T13:17:18;24.80;38.70
78054;DHT22;67726;45.636;11.752;2024-02-14T13:19:44;25.10;55.40
78054;DHT22;67726;45.636;11.752;2024-02-14T13:22:11;25.00;37.00
78054;DHT22;67726;45.636;11.752;2024-02-14T13:24:37;23.40;40.90
78054;DHT22;67726;45.636;11.752;2024-02-14T13:27:03;23.60;45.50
78054;DHT22;67726;45.636;11.752;2024-02-14T13:29:29;23.80;64.20
78054;DHT22;67726;45.636;11.752;2024-02-14T13:31:55;23.70;55.70
78054;DHT22;67726;45.636;11.752;2024-02-14T13:34:20;23.20;41.70
78054;DHT22;67726;45.636;11.752;2024-02-14T13:36:46;23.20;55.50
78054;DHT22;67726;45.636;11.752;2024-02-14T13:39:13;23.20;59.30
78054;DHT22;67726;45.636;11.752;2024-02-14T13:41:42;23.50;56.30
78054;DHT22;67726;45.636;11.752;2024-02-14T13:44:09;23.40;66.30
78054;DHT22;67726;45.636;11.752;2024-02-14T13:46:35;23.20;57.60
78054;DHT22;67726;45.636;11.752;2024-02-14T13:49:01;23.00;43.40
78054;DHT22;67726;45.636;11.752;2024-02-14T13:51:27;22.70;57.80
78054;DHT22;67726;45.636;11.752;2024-02-14T13:53:53;22.30;46.30
78054;DHT22;67726;45.636;11.752;2024-02-14T13:56:19;22.40;48.50
78054;DHT22;67726;45.636;11.752;2024-02-14T13:58:50;22.40;43.60
78054;DHT22;67726;45.636;11.752;2024-02-14T14:01:16;22.20;45.90
78054;DHT22;67726;45.636;11.752;2024-02-14T14:03:43;22.00;49.20
78054;DHT22;67726;45.636;11.752;2024-02-14T14:06:09;21.90;43.10
78054;DHT22;67726;45.636;11.752;2024-02-14T14:08:35;21.00;47.00
78054;DHT22;67726;45.636;11.752;2024-02-14T14:11:04;21.00;44.60
78054;DHT22;67726;45.636;11.752;2024-02-14T14:13:30;21.20;54.20
78054;DHT22;67726;45.636;11.752;2024-02-14T14:16:01;21.50;61.90
78054;DHT22;67726;45.636;11.752;2024-02-14T14:18:30;21.90;73.60
78054;DHT22;67726;45.636;11.752;2024-02-14T14:20:56;22.20;46.90
78054;DHT22;67726;45.636;11.752;2024-02-14T14:23:21;22.10;55.40
78054;DHT22;67726;45.636;11.752;2024-02-14T14:25:47;22.00;46.60
78054;DHT22;67726;45.636;11.752;2024-02-14T14:28:13;22.40;60.20
78054;DHT22;67726;45.636;11.752;2024-02-14T14:30:40;22.80;62.80
78054;DHT22;67726;45.636;11.752;2024-02-14T14:33:05;23.20;55.80
78054;DHT22;67726;45.636;11.752;2024-02-14T14:35:33;22.90;48.10
78054;DHT22;67726;45.636;11.752;2024-02-14T14:37:59;22.90;54.20
78054;DHT22;67726;45.636;11.752;2024-02-14T14:40:25;22.60;52.30
78054;DHT22;67726;45.636;11.752;2024-02-14T14:42:51;22.50;50.10
78054;DHT22;67726;45.636;11.752;2024-02-14T14:45:16;22.20;52.70
78054;DHT22;67726;45.636;11.752;2024-02-14T14:47:42;22.10;50.10
78054;DHT22;67726;45.636;11.752;2024-02-14T14:50:08;22.10;54.60
78054;DHT22;67726;45.636;11.752;2024-02-14T14:52:34;22.10;58.60
78054;DHT22;67726;45.636;11.752;2024-02-14T14:54:59;21.80;45.30
78054;DHT22;67726;45.636;11.752;2024-02-14T14:57:25;21.90;58.90
78054;DHT22;67726;45.636;11.752;2024-02-14T14:59:53;21.90;52.70
78054;DHT22;67726;45.636;11.752;2024-02-14T15:02:19;21.80;54.70
78054;DHT22;67726;45.636;11.752;2024-02-14T15:04:44;21.80;46.00
78054;DHT22;67726;45.636;11.752;2024-02-14T15:07:12;21.90;55.30
78054;DHT22;67726;45.636;11.752;2024-02-14T15:09:38;21.70;49.70
78054;DHT22;67726;45.636;11.752;2024-02-14T15:12:04;21.60;44.80
78054;DHT22;67726;45.636;11.752;2024-02-14T15:14:30;21.50;47.40
78054;DHT22;67726;45.636;11.752;2024-02-14T15:16:56;21.70;56.90
78054;DHT22;67726;45.636;11.752;2024-02-14T15:19:22;21.80;52.40
78054;DHT22;67726;45.636;11.752;2024-02-14T15:21:50;21.70;47.10